Time;durP1;ratioP1;P1;durP2;ratioP2;P2;SDS_P1;SDS_P2;PMS_P1;PMS_P2;Temp;Humidity;BMP_temperature;BMP_pressure;BME280_temperature;BME280_humidity;BME280_pressure;Samples;Min_cycle;Max_cycle;Signal;HPM_P1;HPM_P2
2021/05/20 00:00:56;;;;;;;;;;;;;;;27.37;34.75;99784.25;5139431;27;790;-37
2021/05/20 00:03:21;;;;;;;;;;;;;;;27.45;34.66;99793.16;5139547;27;735;-44
2021/05/20 00:05:46;;;;;;;;;;;;;;;27.40;34.78;99791.09;5139527;27;1962;-35
2021/05/20 00:08:12;;;;;;;;;;;;;;;27.42;34.94;99782.78;5139211;27;743;-44
2021/05/20 00:10:37;;;;;;;;;;;;;;;27.39;34.56;99782.16;5139569;27;802;-37
2021/05/20 00:13:02;;;;;;;;;;;;;;;27.39;34.95;99774.06;5138939;27;953;-37
2021/05/20 00:15:28;;;;;;;;;;;;;;;27.42;34.60;99774.69;5139166;27;877;-37
2021/05/20 00:17:53;;;;;;;;;;;;;;;27.41;34.84;99773.03;5139421;27;806;-39
2021/05/20 00:20:18;;;;;;;;;;;;;;;27.38;34.78;99772.41;5139183;27;755;-38
2021/05/20 00:22:44;;;;;;;;;;;;;;;27.32;34.87;99772.41;5138852;27;1087;-44
2021/05/20 00:25:09;;;;;;;;;;;;;;;27.37;34.85;99765.34;5139274;27;1878;-45
2021/05/20 00:27:35;;;;;;;;;;;;;;;27.37;34.87;99759.13;5136912;27;1276;-37
2021/05/20 00:30:00;;;;;;;;;;;;;;;27.38;34.83;99747.25;5138093;27;801;-38
2021/05/20 00:32:25;;;;;;;;;;;;;;;27.42;34.78;99747.69;5139236;27;782;-39
2021/05/20 00:34:50;;;;;;;;;;;;;;;27.34;35.20;99746.84;5138985;27;800;-45
2021/05/20 00:37:16;;;;;;;;;;;;;;;27.42;34.98;99739.59;5138751;27;778;-36
2021/05/20 00:39:42;;;;;;;;;;;;;;;27.38;34.91;99755.38;5139097;27;754;-44
2021/05/20 00:42:07;;;;;;;;;;;;;;;27.32;35.06;99753.50;5138304;27;925;-37
2021/05/20 00:44:33;;;;;;;;;;;;;;;27.36;34.91;99754.78;5138489;27;1979;-44
2021/05/20 00:46:58;;;;;;;;;;;;;;;27.35;35.02;99745.00;5138550;27;545;-44
2021/05/20 00:49:23;;;;;;;;;;;;;;;27.41;34.53;99746.03;5138661;27;790;-37
2021/05/20 00:51:48;;;;;;;;;;;;;;;27.32;35.17;99754.34;5138876;27;774;-37
2021/05/20 00:54:14;;;;;;;;;;;;;;;27.37;35.09;99742.91;5138730;27;727;-37
2021/05/20 00:56:39;;;;;;;;;;;;;;;27.31;35.29;99733.75;5138077;27;1011;-44
2021/05/20 00:59:05;;;;;;;;;;;;;;;27.32;34.97;99730.03;5138769;27;791;-37
2021/05/20 01:01:30;;;;;;;;;;;;;;;27.35;35.00;99724.22;5138395;27;827;-37
2021/05/20 01:03:56;;;;;;;;;;;;;;;27.37;34.98;99724.00;5138613;27;872;-38
2021/05/20 01:06:21;;;;;;;;;;;;;;;27.38;34.57;99723.81;5138524;27;1905;-45
2021/05/20 01:08:46;;;;;;;;;;;;;;;27.36;34.85;99735.88;5137952;27;755;-37
2021/05/20 01:11:11;;;;;;;;;;;;;;;27.38;34.66;99729.19;5137987;27;983;-38
2021/05/20 01:13:37;;;;;;;;;;;;;;;27.35;34.80;99721.53;5119548;27;989;-38
2021/05/20 01:16:08;;;;;;;;;;;;;;;27.40;35.00;99723.59;5137594;27;855;-45
2021/05/20 01:18:33;;;;;;;;;;;;;;;27.41;34.77;99727.13;5138640;27;790;-40
2021/05/20 01:20:59;;;;;;;;;;;;;;;27.36;34.86;99720.47;5138342;27;1056;-45
2021/05/20 01:23:24;;;;;;;;;;;;;;;27.39;34.60;99716.53;5138129;27;794;-39
2021/05/20 01:25:49;;;;;;;;;;;;;;;27.37;34.98;99710.50;5138189;27;1968;-44
2021/05/20 01:28:16;;;;;;;;;;;;;;;27.38;34.85;99707.59;5137776;27;1000;-45
2021/05/20 01:30:41;;;;;;;;;;;;;;;27.37;34.86;99697.00;5137854;27;767;-45
2021/05/20 01:33:07;;;;;;;;;;;;;;;27.32;34.91;99694.09;5138251;27;754;-38
2021/05/20 01:35:32;;;;;;;;;;;;;;;27.36;34.79;99690.75;5138012;27;737;-45
2021/05/20 01:38:58;;;;;;;;;;;;;;;27.34;34.93;99697.44;5137633;27;745;-38
2021/05/20 01:41:00;;;;;;;;;;;;;;;27.36;35.00;99687.25;5130034;27;1673;-44
2021/05/20 01:43:25;;;;;;;;;;;;;;;27.29;34.94;99681.88;5137445;27;1000;-38
2021/05/20 01:45:58;;;;;;;;;;;;;;;27.30;34.96;99685.38;5137545;27;1909;-45
2021/05/20 01:48:24;;;;;;;;;;;;;;;27.31;35.11;99693.25;5137932;28;838;-36
2021/05/20 01:50:49;;;;;;;;;;;;;;;27.33;34.98;99698.44;5137991;28;819;-44
2021/05/20 01:53:14;;;;;;;;;;;;;;;27.38;34.92;99706.75;5138040;28;842;-38
2021/05/20 01:55:39;;;;;;;;;;;;;;;27.39;34.96;99705.72;5137934;28;775;-45
2021/05/20 01:58:05;;;;;;;;;;;;;;;27.39;34.69;99706.53;5137403;28;977;-37
2021/05/20 02:00:30;;;;;;;;;;;;;;;27.36;34.82;99711.56;5137634;28;799;-45
2021/05/20 02:03:02;;;;;;;;;;;;;;;27.37;34.99;99699.72;5137818;28;783;-36
2021/05/20 02:05:27;;;;;;;;;;;;;;;27.35;35.11;99674.78;5137309;28;1964;-38
2021/05/20 02:07:53;;;;;;;;;;;;;;;27.37;34.69;99668.13;5137520;28;754;-45
2021/05/20 02:10:18;;;;;;;;;;;;;;;27.37;35.08;99665.44;5137657;28;878;-37
2021/05/20 02:12:43;;;;;;;;;;;;;;;27.38;34.92;99666.25;5137178;28;941;-46
2021/05/20 02:15:09;;;;;;;;;;;;;;;27.35;35.09;99674.78;5137162;28;882;-37
2021/05/20 02:17:36;;;;;;;;;;;;;;;27.39;34.83;99681.44;5137809;28;735;-37
2021/05/20 02:20:01;;;;;;;;;;;;;;;27.36;35.23;99669.16;5137940;28;876;-45
2021/05/20 02:22:26;;;;;;;;;;;;;;;27.33;34.94;99661.50;5137431;28;764;-38
2021/05/20 02:24:51;;;;;;;;;;;;;;;27.33;35.10;99677.69;5137454;28;1906;-37
2021/05/20 02:27:17;;;;;;;;;;;;;;;27.35;35.11;99677.47;5137098;28;1004;-37
2021/05/20 02:29:42;;;;;;;;;;;;;;;27.30;35.29;99677.28;5137335;28;786;-45
2021/05/20 02:32:07;;;;;;;;;;;;;;;27.33;34.83;99671.44;5137372;28;759;-38
2021/05/20 02:34:33;;;;;;;;;;;;;;;27.33;34.95;99656.09;5137589;28;758;-44
2021/05/20 02:36:58;;;;;;;;;;;;;;;27.32;35.16;99653.59;5137211;28;806;-36
2021/05/20 02:39:23;;;;;;;;;;;;;;;27.33;34.93;99650.69;5137349;28;767;-45
2021/05/20 02:41:48;;;;;;;;;;;;;;;27.33;34.80;99656.09;5136912;28;913;-38
2021/05/20 02:44:14;;;;;;;;;;;;;;;27.36;34.63;99650.25;5137096;28;1244;-44
2021/05/20 02:46:39;;;;;;;;;;;;;;;27.32;35.16;99643.63;5137169;28;1979;-44
2021/05/20 02:49:04;;;;;;;;;;;;;;;27.35;35.15;99651.31;5137381;28;866;-39
2021/05/20 02:51:30;;;;;;;;;;;;;;;27.35;34.69;99656.72;5137195;27;783;-44
2021/05/20 02:53:55;;;;;;;;;;;;;;;27.39;34.69;99657.94;5140323;27;818;-37
2021/05/20 02:56:20;;;;;;;;;;;;;;;27.38;35.04;99663.56;5140751;27;937;-36
2021/05/20 02:58:45;;;;;;;;;;;;;;;27.32;34.91;99667.09;5140658;27;918;-37
2021/05/20 03:01:11;;;;;;;;;;;;;;;27.35;34.93;99659.41;5141383;27;747;-43
2021/05/20 03:03:36;;;;;;;;;;;;;;;27.35;34.97;99662.13;5140670;27;830;-37
2021/05/20 03:06:01;;;;;;;;;;;;;;;27.36;34.85;99654.84;5140548;27;1902;-45
2021/05/20 03:08:27;;;;;;;;;;;;;;;27.41;34.85;99648.81;5140562;27;783;-36
2021/05/20 03:10:52;;;;;;;;;;;;;;;27.37;35.10;99654.63;5140828;27;917;-45
2021/05/20 03:13:18;;;;;;;;;;;;;;;27.32;35.25;99648.19;5139971;27;948;-37
2021/05/20 03:15:43;;;;;;;;;;;;;;;27.33;35.27;99644.44;5140556;27;782;-36
2021/05/20 03:18:08;;;;;;;;;;;;;;;27.28;35.38;99645.09;5140307;27;746;-41
2021/05/20 03:20:33;;;;;;;;;;;;;;;27.31;35.12;99641.97;5140387;27;767;-41
2021/05/20 03:22:59;;;;;;;;;;;;;;;27.35;35.09;99636.97;5140403;27;790;-41
2021/05/20 03:25:24;;;;;;;;;;;;;;;27.26;35.21;99639.91;5140427;27;1905;-41
2021/05/20 03:27:49;;;;;;;;;;;;;;;27.36;35.18;99642.16;5139694;27;952;-38
2021/05/20 03:30:15;;;;;;;;;;;;;;;27.32;35.10;99634.69;5140252;27;794;-41
2021/05/20 03:32:40;;;;;;;;;;;;;;;27.32;35.11;99648.19;5140401;27;759;-41
2021/05/20 03:35:06;;;;;;;;;;;;;;;27.35;35.12;99643.22;5140140;27;854;-40
2021/05/20 03:37:32;;;;;;;;;;;;;;;27.36;35.34;99652.97;5140297;27;782;-42
2021/05/20 03:39:57;;;;;;;;;;;;;;;27.34;35.44;99644.22;5140301;27;802;-45
2021/05/20 03:42:22;;;;;;;;;;;;;;;27.42;35.13;99643.19;5139576;27;909;-43
2021/05/20 03:44:47;;;;;;;;;;;;;;;27.07;34.21;99655.09;5139914;27;1964;-40
2021/05/20 03:47:13;;;;;;;;;;;;;;;26.89;34.87;99643.03;5139803;27;846;-41
2021/05/20 03:49:38;;;;;;;;;;;;;;;26.86;34.81;99639.94;5139716;27;763;-41
2021/05/20 03:52:03;;;;;;;;;;;;;;;26.75;35.20;99628.72;5139954;27;838;-39
2021/05/20 03:54:29;;;;;;;;;;;;;;;26.71;35.39;99626.66;5140192;27;771;-40
2021/05/20 03:56:54;;;;;;;;;;;;;;;26.62;35.52;99628.72;5138622;27;949;-35
2021/05/20 03:59:19;;;;;;;;;;;;;;;26.66;35.47;99624.56;5139701;27;739;-43
2021/05/20 04:01:44;;;;;;;;;;;;;;;26.68;35.23;99619.81;5139695;27;830;-39
2021/05/20 04:04:10;;;;;;;;;;;;;;;26.59;35.84;99635.34;5139362;27;751;-42
2021/05/20 04:06:35;;;;;;;;;;;;;;;26.40;36.24;99635.16;5139624;27;1966;-40
2021/05/20 04:09:00;;;;;;;;;;;;;;;26.09;37.05;99644.56;5139298;27;731;-43
2021/05/20 04:11:28;;;;;;;;;;;;;;;25.63;37.61;99646.91;5137230;27;949;-35
2021/05/20 04:13:53;;;;;;;;;;;;;;;24.99;39.29;99629.94;5139873;27;745;-36
2021/05/20 04:16:23;;;;;;;;;;;;;;;24.81;40.52;99628.50;5139474;27;842;-33
2021/05/20 04:18:48;;;;;;;;;;;;;;;25.25;39.60;99631.13;5139193;27;766;-32
2021/05/20 04:21:14;;;;;;;;;;;;;;;25.40;38.97;99618.38;5139121;27;885;-31
2021/05/20 04:23:43;;;;;;;;;;;;;;;25.42;38.20;99624.38;5139366;27;829;-33
2021/05/20 04:26:08;;;;;;;;;;;;;;;25.15;39.54;99636.84;5138887;27;1965;-33
2021/05/20 04:28:33;;;;;;;;;;;;;;;23.08;44.20;99644.84;5138515;27;1000;-37
2021/05/20 04:30:58;;;;;;;;;;;;;;;23.32;43.96;99635.72;5139217;27;826;-37
2021/05/20 04:33:24;;;;;;;;;;;;;;;24.75;40.48;99624.75;5139230;27;738;-36
2021/05/20 04:35:49;;;;;;;;;;;;;;;25.55;38.92;99623.63;5120283;27;1181;-39
2021/05/20 04:38:14;;;;;;;;;;;;;;;25.97;38.12;99630.88;5118351;28;869;-38
2021/05/20 04:40:40;;;;;;;;;;;;;;;26.27;37.64;99632.41;5117912;28;853;-38
2021/05/20 04:43:05;;;;;;;;;;;;;;;26.38;37.59;99630.97;5117349;28;976;-35
2021/05/20 04:45:31;;;;;;;;;;;;;;;26.51;37.21;99631.00;5118092;28;1988;-34
2021/05/20 04:47:56;;;;;;;;;;;;;;;26.61;37.13;99618.97;5117940;28;830;-35
2021/05/20 04:50:21;;;;;;;;;;;;;;;26.70;36.80;99616.88;5117866;28;736;-35
2021/05/20 04:52:47;;;;;;;;;;;;;;;26.81;36.73;99618.97;5118153;28;779;-34
2021/05/20 04:55:12;;;;;;;;;;;;;;;26.86;36.37;99627.25;5117873;28;743;-35
2021/05/20 04:57:38;;;;;;;;;;;;;;;26.93;36.30;99616.47;5117040;28;1008;-35
2021/05/20 05:00:04;;;;;;;;;;;;;;;26.85;36.74;99611.28;5117835;28;767;-35
2021/05/20 05:02:29;;;;;;;;;;;;;;;26.89;36.27;99613.34;5117740;28;818;-36
2021/05/20 05:04:55;;;;;;;;;;;;;;;26.94;36.23;99607.34;5117922;28;1913;-36
2021/05/20 05:07:20;;;;;;;;;;;;;;;26.94;36.67;99625.41;5117722;28;740;-35
2021/05/20 05:09:45;;;;;;;;;;;;;;;26.97;36.27;99639.31;5117522;28;1548;-36
2021/05/20 05:12:11;;;;;;;;;;;;;;;26.96;36.46;99634.13;5117070;28;918;-36
2021/05/20 05:14:36;;;;;;;;;;;;;;;27.09;36.50;99626.00;5117500;28;869;-35
2021/05/20 05:17:01;;;;;;;;;;;;;;;27.01;36.31;99621.66;5117243;28;802;-36
2021/05/20 05:19:27;;;;;;;;;;;;;;;27.05;36.43;99613.16;5117394;28;797;-35
2021/05/20 05:21:52;;;;;;;;;;;;;;;27.07;36.40;99598.44;5117905;28;830;-35
2021/05/20 05:24:17;;;;;;;;;;;;;;;27.16;36.18;99592.78;5117420;28;909;-36
2021/05/20 05:26:42;;;;;;;;;;;;;;;27.20;36.49;99600.25;5116558;28;1894;-35
2021/05/20 05:29:08;;;;;;;;;;;;;;;27.19;36.24;99603.16;5118106;28;747;-35
2021/05/20 05:31:36;;;;;;;;;;;;;;;27.19;36.30;99619.38;5117348;28;786;-37
2021/05/20 05:34:01;;;;;;;;;;;;;;;27.34;35.72;99619.13;5117501;28;807;-38
2021/05/20 05:36:26;;;;;;;;;;;;;;;27.35;35.83;99621.59;5117426;28;822;-37
2021/05/20 05:38:52;;;;;;;;;;;;;;;27.36;35.55;99644.06;5117088;28;883;-37
2021/05/20 05:41:17;;;;;;;;;;;;;;;27.38;36.14;99650.88;5116278;28;934;-37
2021/05/20 05:43:42;;;;;;;;;;;;;;;27.40;35.60;99656.06;5117289;28;819;-36
2021/05/20 05:46:08;;;;;;;;;;;;;;;27.41;36.02;99656.91;5116926;28;1905;-39
2021/05/20 05:48:33;;;;;;;;;;;;;;;27.36;36.05;99652.16;5116939;28;962;-42
2021/05/20 05:50:58;;;;;;;;;;;;;;;27.39;35.90;99659.81;5117258;28;760;-43
2021/05/20 05:53:24;;;;;;;;;;;;;;;27.40;36.29;99658.78;5117060;28;807;-39
2021/05/20 05:55:49;;;;;;;;;;;;;;;27.31;36.33;99644.66;5116780;28;736;-36
2021/05/20 05:58:14;;;;;;;;;;;;;;;27.48;36.06;99628.00;5116477;28;1036;-43
2021/05/20 06:00:40;;;;;;;;;;;;;;;27.55;35.84;99626.13;5117703;28;763;-40
2021/05/20 06:03:05;;;;;;;;;;;;;;;27.56;36.10;99630.47;5117253;28;814;-41
2021/05/20 06:05:31;;;;;;;;;;;;;;;27.61;35.88;99632.53;5116943;28;1906;-41
2021/05/20 06:07:56;;;;;;;;;;;;;;;27.63;35.81;99633.13;5116887;28;822;-40
2021/05/20 06:10:23;;;;;;;;;;;;;;;27.52;36.14;99634.66;5117109;28;762;-42
2021/05/20 06:12:48;;;;;;;;;;;;;;;27.62;35.63;99632.34;5116535;28;997;-41
2021/05/20 06:15:13;;;;;;;;;;;;;;;27.62;35.59;99632.34;5116998;28;874;-41
2021/05/20 06:17:39;;;;;;;;;;;;;;;27.57;35.77;99628.59;5116896;28;830;-41
2021/05/20 06:20:04;;;;;;;;;;;;;;;27.56;35.68;99613.44;5116889;28;766;-40
2021/05/20 06:22:30;;;;;;;;;;;;;;;27.60;35.50;99612.81;5116350;28;1022;-40
2021/05/20 06:24:55;;;;;;;;;;;;;;;27.66;35.85;99624.59;5116205;28;1971;-40
2021/05/20 06:27:20;;;;;;;;;;;;;;;27.70;35.55;99639.38;5117097;28;954;-41
2021/05/20 06:29:46;;;;;;;;;;;;;;;27.71;35.71;99630.22;5120761;28;1001;-39
2021/05/20 06:32:11;;;;;;;;;;;;;;;27.71;35.66;99638.34;5120655;28;782;-39
2021/05/20 06:34:36;;;;;;;;;;;;;;;27.45;35.64;99631.13;5120360;28;722;-39
2021/05/20 06:37:02;;;;;;;;;;;;;;;27.53;35.81;99636.28;5120729;28;767;-39
2021/05/20 06:39:28;;;;;;;;;;;;;;;27.60;35.97;99649.78;5120247;28;838;-41
2021/05/20 06:41:55;;;;;;;;;;;;;;;27.63;35.65;99650.19;5119987;28;898;-41
2021/05/20 06:44:20;;;;;;;;;;;;;;;27.75;35.73;99630.63;5120240;28;1307;-38
2021/05/20 06:46:46;;;;;;;;;;;;;;;27.78;35.58;99626.69;5120345;28;1913;-39
2021/05/20 06:49:11;;;;;;;;;;;;;;;27.72;35.86;99622.97;5120191;28;751;-41
2021/05/20 06:51:36;;;;;;;;;;;;;;;27.71;35.96;99624.00;5120189;28;866;-41
2021/05/20 06:54:02;;;;;;;;;;;;;;;27.61;35.93;99630.66;5120204;28;771;-41
2021/05/20 06:56:29;;;;;;;;;;;;;;;27.62;35.57;99626.09;5119511;28;996;-41
2021/05/20 07:01:44;;;;;;;;;;;;;;;27.66;35.89;99613.78;5119827;28;616;-41
2021/05/20 07:04:09;;;;;;;;;;;;;;;27.79;35.83;99620.22;5120245;28;776;-42
2021/05/20 07:06:35;;;;;;;;;;;;;;;27.84;35.67;99625.81;5120045;28;2272;-43
2021/05/20 07:09:00;;;;;;;;;;;;;;;27.68;35.82;99625.25;5120228;28;807;-36
2021/05/20 07:11:25;;;;;;;;;;;;;;;27.79;35.63;99631.88;5119398;28;925;-40
2021/05/20 07:13:50;;;;;;;;;;;;;;;27.72;35.91;99640.00;5120561;28;754;-36
2021/05/20 07:16:16;;;;;;;;;;;;;;;27.73;35.90;99648.94;5119878;28;826;-35
2021/05/20 07:18:41;;;;;;;;;;;;;;;27.77;35.77;99646.63;5119605;28;802;-36
2021/05/20 07:21:06;;;;;;;;;;;;;;;27.80;35.88;99647.03;5119908;28;838;-35
2021/05/20 07:23:31;;;;;;;;;;;;;;;27.69;35.66;99653.13;5119752;28;767;-35
2021/05/20 07:25:57;;;;;;;;;;;;;;;27.66;35.81;99662.44;5119686;28;1905;-35
2021/05/20 07:28:22;;;;;;;;;;;;;;;27.71;35.84;99656.44;5119436;28;954;-35
2021/05/20 07:30:48;;;;;;;;;;;;;;;27.77;36.02;99657.44;5119571;28;745;-36
2021/05/20 07:33:13;;;;;;;;;;;;;;;27.85;35.71;99668.00;5119777;28;815;-35
2021/05/20 07:35:38;;;;;;;;;;;;;;;27.88;35.56;99664.88;5119507;28;862;-35
2021/05/20 07:38:04;;;;;;;;;;;;;;;27.90;35.83;99657.38;5118988;28;795;-40
2021/05/20 07:40:29;;;;;;;;;;;;;;;27.99;35.41;99655.28;5119265;28;869;-38
2021/05/20 07:42:54;;;;;;;;;;;;;;;27.97;35.38;99644.69;5118775;28;922;-42
2021/05/20 07:45:20;;;;;;;;;;;;;;;28.06;35.18;99644.44;5119373;28;1999;-33
2021/05/20 07:47:48;;;;;;;;;;;;;;;28.11;35.15;99648.13;5117841;28;789;-41
2021/05/20 07:50:13;;;;;;;;;;;;;;;28.07;35.70;99648.78;5118825;28;823;-41
2021/05/20 07:52:38;;;;;;;;;;;;;;;28.10;35.74;99643.78;5119367;28;747;-40
2021/05/20 07:55:04;;;;;;;;;;;;;;;28.08;35.59;99645.00;5118914;28;730;-41
2021/05/20 07:57:29;;;;;;;;;;;;;;;28.10;35.59;99653.75;5119128;28;1025;-42
2021/05/20 07:59:55;;;;;;;;;;;;;;;28.14;35.13;99652.28;5119177;28;811;-41
2021/05/20 08:02:35;;;;;;;;;;;;;;;28.19;35.01;99655.16;5118756;28;799;-38
2021/05/20 08:05:06;;;;;;;;;;;;;;;28.16;35.52;99669.09;5119168;28;1905;-39
2021/05/20 08:07:54;;;;;;;;;;;;;;;28.17;35.43;99673.47;5118976;28;743;-40
2021/05/20 08:12:44;;;;;;;;;;;;;;;28.17;35.37;99687.00;5118413;28;957;-34
2021/05/20 08:15:10;;;;;;;;;;;;;;;28.17;35.25;99670.78;5118922;28;828;-37
2021/05/20 08:17:35;;;;;;;;;;;;;;;28.17;35.27;99653.72;5118275;28;751;-37
2021/05/20 08:20:00;;;;;;;;;;;;;;;28.22;35.06;99646.63;5118757;28;750;-36
2021/05/20 08:22:26;;;;;;;;;;;;;;;28.24;35.19;99644.50;5119042;28;798;-33
2021/05/20 08:24:53;;;;;;;;;;;;;;;28.26;35.06;99619.13;5118152;28;1909;-35
2021/05/20 08:27:18;;;;;;;;;;;;;;;28.34;34.90;99600.78;5117693;28;973;-34
2021/05/20 08:29:44;;;;;;;;;;;;;;;28.23;35.48;99626.63;5118505;28;810;-39
2021/05/20 08:32:09;;;;;;;;;;;;;;;28.26;35.12;99632.66;5118224;28;805;-38
2021/05/20 08:34:34;;;;;;;;;;;;;;;28.00;34.31;99635.28;5117024;28;1518;-44
2021/05/20 08:37:02;;;;;;;;;;;;;;;27.98;34.75;99615.75;5118349;28;778;-37
2021/05/20 08:39:28;;;;;;;;;;;;;;;28.09;34.56;99644.81;5118160;28;759;-36
2021/05/20 08:41:54;;;;;;;;;;;;;;;27.80;33.80;99611.91;5117945;28;1005;-36
2021/05/20 08:44:19;;;;;;;;;;;;;;;27.89;33.59;99608.94;5118230;28;1241;-36
2021/05/20 08:46:44;;;;;;;;;;;;;;;27.94;33.86;99606.44;5117811;28;1918;-37
2021/05/20 08:49:18;;;;;;;;;;;;;;;28.07;33.57;99619.88;5118295;28;814;-42
2021/05/20 08:51:44;;;;;;;;;;;;;;;28.09;33.64;99608.84;5117256;28;1178;-44
2021/05/20 08:54:09;;;;;;;;;;;;;;;28.14;33.66;99619.00;5117741;28;775;-43
2021/05/20 08:56:34;;;;;;;;;;;;;;;28.12;33.59;99624.63;5117839;28;941;-43
2021/05/20 08:59:00;;;;;;;;;;;;;;;28.12;33.53;99635.44;5117643;28;1469;-43
2021/05/20 09:01:35;;;;;;;;;;;;;;;28.06;33.82;99630.91;5117412;28;862;-33
2021/05/20 09:04:00;;;;;;;;;;;;;;;28.07;33.99;99657.72;5117762;28;811;-44
2021/05/20 09:07:00;;;;;;;;;;;;;;;28.06;33.85;99676.88;5117684;28;1976;-35
2021/05/20 09:09:32;;;;;;;;;;;;;;;28.06;33.79;99683.09;5117640;28;806;-35
2021/05/20 09:11:58;;;;;;;;;;;;;;;28.07;33.93;99683.91;5117429;28;929;-35
2021/05/20 09:14:33;;;;;;;;;;;;;;;28.01;33.89;99701.00;5117415;28;1004;-34
2021/05/20 09:17:07;;;;;;;;;;;;;;;28.07;33.76;99710.94;5117401;28;751;-34
2021/05/20 09:19:33;;;;;;;;;;;;;;;28.13;34.02;99709.28;5117324;28;1491;-37
2021/05/20 09:22:02;;;;;;;;;;;;;;;28.16;33.81;99711.53;5117700;28;874;-34
2021/05/20 09:24:44;;;;;;;;;;;;;;;28.15;33.61;99718.81;5117428;28;807;-33
2021/05/20 09:27:31;;;;;;;;;;;;;;;28.11;33.77;99718.41;5116909;28;929;-36
2021/05/20 09:30:11;;;;;;;;;;;;;;;28.17;33.84;99727.56;5117542;28;771;-40
2021/05/20 09:32:40;;;;;;;;;;;;;;;28.20;34.11;99727.13;5117506;28;755;-35
2021/05/20 09:35:06;;;;;;;;;;;;;;;28.20;33.91;99728.97;5117696;28;726;-43
2021/05/20 09:37:33;;;;;;;;;;;;;;;28.25;33.80;99740.00;5117418;28;770;-44
2021/05/20 09:39:59;;;;;;;;;;;;;;;28.22;34.01;99738.56;5117325;28;809;-35
2021/05/20 09:42:24;;;;;;;;;;;;;;;28.18;34.36;99742.72;5117175;28;926;-42
2021/05/20 09:44:50;;;;;;;;;;;;;;;28.18;34.36;99744.59;5116806;28;1976;-42
2021/05/20 09:47:15;;;;;;;;;;;;;;;28.24;34.11;99747.25;5117235;28;742;-43
2021/05/20 09:49:56;;;;;;;;;;;;;;;28.26;34.20;99747.03;5117300;28;783;-42
2021/05/20 09:52:22;;;;;;;;;;;;;;;28.21;34.08;99745.00;5116764;28;823;-44
2021/05/20 09:54:47;;;;;;;;;;;;;;;28.19;34.53;99755.22;5117099;28;723;-35
2021/05/20 09:57:24;;;;;;;;;;;;;;;28.01;34.97;99749.66;5116718;28;954;-44
2021/05/20 09:59:59;;;;;;;;;;;;;;;27.89;35.08;99760.31;5116756;28;809;-41
2021/05/20 10:02:25;;;;;;;;;;;;;;;27.73;35.55;99757.00;5119773;28;771;-32
2021/05/20 10:04:52;;;;;;;;;;;;;;;27.65;35.74;99763.44;5121424;28;1902;-45
2021/05/20 10:07:28;;;;;;;;;;;;;;;27.46;35.31;99773.25;5120966;28;795;-44
2021/05/20 10:09:53;;;;;;;;;;;;;;;27.23;36.09;99766.38;5121300;28;727;-45
2021/05/20 10:12:18;;;;;;;;;;;;;;;27.22;35.88;99778.22;5119928;28;1010;-37
2021/05/20 10:14:44;;;;;;;;;;;;;;;27.24;35.63;99778.84;5120944;28;849;-44
2021/05/20 10:17:09;;;;;;;;;;;;;;;27.12;36.12;99786.75;5119958;28;818;-37
2021/05/20 10:19:36;;;;;;;;;;;;;;;27.07;35.85;99783.81;5119665;28;945;-36
2021/05/20 10:22:01;;;;;;;;;;;;;;;27.20;35.66;99799.19;5119519;28;834;-43
2021/05/20 10:24:27;;;;;;;;;;;;;;;27.23;35.47;99793.38;5119257;28;800;-38
2021/05/20 10:26:52;;;;;;;;;;;;;;;27.16;36.09;99804.16;5120430;28;1902;-43
2021/05/20 10:29:17;;;;;;;;;;;;;;;27.14;36.07;99814.38;5120806;28;743;-34
2021/05/20 10:31:43;;;;;;;;;;;;;;;27.22;35.87;99802.53;5120968;28;858;-43
2021/05/20 10:34:08;;;;;;;;;;;;;;;27.25;35.86;99816.44;5121211;28;806;-38
2021/05/20 10:36:34;;;;;;;;;;;;;;;27.29;35.38;99810.63;5118884;28;882;-43
2021/05/20 10:39:17;;;;;;;;;;;;;;;27.29;35.55;99813.34;5119357;28;852;-44
2021/05/20 10:41:43;;;;;;;;;;;;;;;27.32;35.61;99818.31;5118665;28;1496;-37
2021/05/20 10:44:08;;;;;;;;;;;;;;;27.30;35.47;99802.31;5120506;28;1045;-43
2021/05/20 10:46:52;;;;;;;;;;;;;;;27.31;35.65;99805.88;5120648;28;1917;-44
2021/05/20 10:49:19;;;;;;;;;;;;;;;27.34;35.58;99805.44;5120716;28;840;-37
2021/05/20 10:51:45;;;;;;;;;;;;;;;27.33;35.70;99796.50;5120358;28;859;-43
2021/05/20 10:54:10;;;;;;;;;;;;;;;27.36;35.30;99816.88;5120556;28;755;-43
2021/05/20 10:56:39;;;;;;;;;;;;;;;27.37;35.20;99818.53;5101462;28;1493;-42
2021/05/20 10:59:22;;;;;;;;;;;;;;;27.36;35.59;99822.28;5120190;28;787;-43
2021/05/20 11:01:48;;;;;;;;;;;;;;;27.32;35.78;99815.63;5120720;28;748;-38
2021/05/20 11:04:13;;;;;;;;;;;;;;;27.35;35.30;99816.03;5120216;28;906;-38
2021/05/20 11:06:40;;;;;;;;;;;;;;;27.40;35.39;99815.41;5118604;28;1955;-39
2021/05/20 11:09:10;;;;;;;;;;;;;;;27.42;35.08;99821.44;5120073;28;875;-38
2021/05/20 11:11:39;;;;;;;;;;;;;;;27.38;35.44;99820.19;5119519;28;993;-38
2021/05/20 11:14:04;;;;;;;;;;;;;;;27.35;35.33;99817.91;5118854;28;763;-44
2021/05/20 11:16:30;;;;;;;;;;;;;;;27.41;35.27;99806.25;5119897;28;735;-45
2021/05/20 11:19:14;;;;;;;;;;;;;;;27.38;35.12;99810.22;5120375;28;727;-39
2021/05/20 11:22:01;;;;;;;;;;;;;;;27.36;35.63;99819.56;5119555;28;822;-43
2021/05/20 11:24:33;;;;;;;;;;;;;;;27.39;35.36;99819.16;5119477;28;956;-43
2021/05/20 11:26:59;;;;;;;;;;;;;;;27.43;35.36;99824.94;5119193;28;1955;-44
2021/05/20 11:29:28;;;;;;;;;;;;;;;27.45;34.99;99809.38;5119432;28;727;-38
2021/05/20 11:31:58;;;;;;;;;;;;;;;27.42;35.19;99810.63;5120018;28;771;-39
2021/05/20 11:36:48;;;;;;;;;;;;;;;27.42;35.21;99809.78;5118947;28;612;-43
2021/05/20 11:39:14;;;;;;;;;;;;;;;27.35;34.93;99823.31;5119795;28;739;-44
2021/05/20 11:41:42;;;;;;;;;;;;;;;27.42;35.15;99820.59;5119139;28;937;-43
2021/05/20 11:44:08;;;;;;;;;;;;;;;27.39;35.12;99824.56;5118920;28;1074;-41
2021/05/20 11:46:34;;;;;;;;;;;;;;;27.37;34.93;99823.94;5119501;28;1918;-44
2021/05/20 11:49:00;;;;;;;;;;;;;;;27.45;34.86;99836.38;5119576;28;762;-45
2021/05/20 11:51:40;;;;;;;;;;;;;;;27.49;35.04;99837.66;5119267;28;731;-45
2021/05/20 11:54:12;;;;;;;;;;;;;;;27.46;34.64;99846.97;5119462;28;727;-45
2021/05/20 11:56:37;;;;;;;;;;;;;;;27.46;34.86;99852.38;5118902;28;933;-42
2021/05/20 11:59:03;;;;;;;;;;;;;;;27.38;34.18;99853.44;5118927;28;894;-38
2021/05/20 12:01:28;;;;;;;;;;;;;;;27.37;34.48;99859.88;5119349;28;810;-44
2021/05/20 12:04:00;;;;;;;;;;;;;;;27.39;34.79;99851.56;5119184;28;775;-46
2021/05/20 12:06:26;;;;;;;;;;;;;;;27.43;34.42;99857.38;5118622;28;1902;-45
2021/05/20 12:09:24;;;;;;;;;;;;;;;27.45;34.41;99858.84;5119139;28;767;-44
2021/05/20 12:11:49;;;;;;;;;;;;;;;27.35;34.74;99853.84;5084037;28;1302;-44
2021/05/20 12:14:30;;;;;;;;;;;;;;;27.33;34.53;99850.50;5119076;28;771;-37
2021/05/20 12:17:02;;;;;;;;;;;;;;;27.32;34.79;99851.56;5119162;28;857;-44
2021/05/20 12:19:30;;;;;;;;;;;;;;;27.26;34.67;99846.97;5118730;28;759;-39
2021/05/20 12:21:59;;;;;;;;;;;;;;;27.22;34.43;99846.56;5118626;28;795;-44
2021/05/20 12:24:31;;;;;;;;;;;;;;;27.23;34.88;99850.91;5116763;28;807;-38
2021/05/20 12:27:03;;;;;;;;;;;;;;;27.20;34.93;99858.59;5117580;28;1905;-37
2021/05/20 12:29:28;;;;;;;;;;;;;;;27.36;35.27;99865.50;5118169;28;885;-40
2021/05/20 12:31:53;;;;;;;;;;;;;;;27.54;34.42;99854.06;5117578;28;822;-42
2021/05/20 12:34:22;;;;;;;;;;;;;;;27.62;34.60;99859.25;5118447;28;839;-38
2021/05/20 12:36:47;;;;;;;;;;;;;;;27.68;34.42;99854.91;5117894;28;831;-36
2021/05/20 12:39:13;;;;;;;;;;;;;;;27.67;34.46;99850.53;5118536;28;790;-37
2021/05/20 12:41:38;;;;;;;;;;;;;;;27.69;34.56;99843.09;5117807;28;933;-36
2021/05/20 12:44:15;;;;;;;;;;;;;;;27.72;34.56;99848.06;5117999;28;1212;-39
2021/05/20 12:46:41;;;;;;;;;;;;;;;27.73;34.33;99854.28;5118447;28;1914;-36
2021/05/20 12:49:06;;;;;;;;;;;;;;;27.78;34.30;99851.78;5118282;28;834;-40
2021/05/20 12:51:31;;;;;;;;;;;;;;;27.77;34.25;99858.25;5118354;28;759;-40
2021/05/20 12:53:57;;;;;;;;;;;;;;;27.77;34.42;99857.41;5118094;28;755;-36
2021/05/20 12:56:26;;;;;;;;;;;;;;;27.69;34.74;99861.16;5117625;28;1040;-38
2021/05/20 12:58:52;;;;;;;;;;;;;;;27.78;34.53;99854.47;5117840;28;769;-38
2021/05/20 13:01:18;;;;;;;;;;;;;;;27.65;34.77;99855.31;5117849;28;799;-37
2021/05/20 13:03:46;;;;;;;;;;;;;;;27.70;34.73;99869.06;5118140;28;1484;-40
2021/05/20 13:06:11;;;;;;;;;;;;;;;27.65;34.85;99882.31;5117721;28;1974;-38
2021/05/20 13:08:40;;;;;;;;;;;;;;;27.68;34.77;99887.34;5116489;28;1536;-36
2021/05/20 13:11:16;;;;;;;;;;;;;;;27.74;34.24;99885.69;5118069;28;938;-36